createdAt,value
2018-09-05T00:01:29.103Z,100.00
2018-09-05T00:03:58.922Z,100.00
2018-09-05T00:11:33.334Z,100.00
2018-09-05T00:14:02.788Z,100.00
2018-09-05T00:16:32.035Z,100.00
2018-09-05T00:19:01.370Z,100.00
2018-09-05T00:21:30.600Z,100.00
2018-09-05T00:24:01.434Z,100.00
2018-09-05T00:26:30.780Z,100.00
2018-09-05T00:29:00.770Z,100.00
2018-09-05T00:31:30.029Z,100.00
2018-09-05T00:34:01.181Z,100.00
2018-09-05T00:36:32.692Z,100.00
2018-09-05T00:39:04.542Z,100.00
2018-09-05T00:41:34.434Z,100.00
2018-09-05T00:44:03.696Z,100.00
2018-09-05T00:46:32.894Z,100.00
2018-09-05T00:49:02.520Z,100.00
2018-09-05T00:51:31.946Z,100.00
2018-09-05T00:54:01.453Z,100.00
2018-09-05T00:56:30.668Z,100.00
2018-09-05T00:58:59.857Z,100.00
2018-09-05T01:01:31.099Z,100.00
2018-09-05T01:04:00.312Z,100.00
2018-09-05T01:06:30.265Z,100.00
2018-09-05T01:08:59.714Z,100.00
2018-09-05T01:11:29.759Z,100.00
2018-09-05T01:14:00.503Z,100.00
2018-09-05T01:16:30.244Z,100.00
2018-09-05T01:18:59.837Z,100.00
2018-09-05T01:26:35.297Z,100.00
2018-09-05T01:29:04.501Z,100.00
2018-09-05T01:31:33.844Z,100.00
2018-09-05T01:34:03.057Z,100.00
2018-09-05T01:36:32.251Z,100.00
2018-09-05T01:39:01.433Z,100.00
2018-09-05T01:41:30.609Z,100.00
2018-09-05T01:44:00.023Z,100.00
2018-09-05T01:51:32.030Z,100.00
2018-09-05T01:54:01.495Z,100.00
2018-09-05T01:56:30.686Z,100.00
2018-09-05T01:59:00.196Z,100.00
2018-09-05T02:06:30.716Z,100.00
2018-09-05T02:09:00.264Z,100.00
2018-09-05T02:16:30.471Z,100.00
2018-09-05T02:19:00.330Z,100.00
2018-09-05T02:26:35.327Z,100.00
2018-09-05T02:29:04.596Z,100.00
2018-09-05T02:31:35.773Z,100.00
2018-09-05T02:34:04.975Z,100.00
2018-09-05T02:36:34.168Z,100.00
2018-09-05T02:39:03.670Z,100.00
2018-09-05T02:41:32.851Z,100.00
2018-09-05T02:44:07.319Z,100.00
2018-09-05T02:46:36.499Z,100.00
2018-09-05T02:49:05.738Z,100.00
2018-09-05T02:51:35.709Z,100.00
2018-09-05T02:54:06.939Z,100.00
2018-09-05T02:56:36.172Z,100.00
2018-09-05T02:59:05.461Z,100.00
2018-09-05T03:01:34.737Z,100.00
2018-09-05T03:04:05.916Z,100.00
2018-09-05T03:06:35.281Z,100.00
2018-09-05T03:09:07.265Z,100.00
2018-09-05T03:11:36.697Z,100.00
2018-09-05T03:14:05.892Z,100.00
2018-09-05T03:16:35.101Z,100.00
2018-09-05T03:19:04.348Z,100.00
2018-09-05T03:21:33.499Z,100.00
2018-09-05T03:24:02.797Z,100.00
2018-09-05T03:26:31.993Z,100.00
2018-09-05T03:29:01.195Z,100.00
2018-09-05T03:31:31.441Z,100.00
2018-09-05T03:34:01.111Z,100.00
2018-09-05T03:41:38.519Z,100.00
2018-09-05T03:44:07.790Z,100.00
2018-09-05T03:46:36.990Z,100.00
2018-09-05T03:49:06.191Z,100.00
2018-09-05T03:51:35.342Z,100.00
2018-09-05T03:54:04.718Z,100.00
2018-09-05T03:56:34.701Z,100.00
2018-09-05T03:59:03.947Z,100.00
2018-09-05T04:01:33.914Z,100.00
2018-09-05T04:04:03.134Z,100.00
2018-09-05T04:06:32.353Z,100.00
2018-09-05T04:09:01.564Z,100.00
2018-09-05T04:11:31.774Z,100.00
2018-09-05T04:14:01.447Z,100.00
2018-09-05T04:16:31.785Z,100.00
2018-09-05T04:19:01.488Z,100.00
2018-09-05T04:58:18.651Z,100.00
2018-09-05T05:00:48.180Z,100.00
2018-09-05T05:03:17.794Z,100.00
2018-09-05T05:05:47.034Z,100.00
2018-09-05T05:08:16.576Z,100.00
2018-09-05T05:10:45.900Z,100.00
2018-09-05T05:13:17.617Z,100.00
2018-09-05T05:15:46.791Z,100.00
2018-09-05T05:18:16.345Z,100.00
2018-09-05T05:20:57.293Z,100.00
2018-09-05T05:23:26.626Z,100.00
2018-09-05T05:25:55.840Z,100.00
2018-09-05T05:28:25.432Z,100.00
2018-09-05T05:30:54.830Z,100.00
2018-09-05T05:33:24.019Z,100.00
2018-09-05T05:35:53.213Z,100.00
2018-09-05T05:38:24.239Z,100.00
2018-09-05T05:40:53.592Z,100.00
2018-09-05T05:43:23.207Z,100.00
2018-09-05T05:45:52.492Z,100.00
2018-09-05T05:48:22.043Z,100.00
2018-09-05T05:50:51.305Z,100.00
2018-09-05T05:53:22.850Z,100.00
2018-09-05T05:55:53.779Z,100.00
2018-09-05T05:58:27.087Z,100.00
2018-09-05T06:00:56.330Z,100.00
2018-09-05T06:03:25.936Z,100.00
2018-09-05T06:05:55.203Z,100.00
2018-09-05T06:08:24.777Z,100.00
2018-09-05T06:10:53.985Z,100.00
2018-09-05T06:13:26.343Z,100.00
2018-09-05T06:15:57.181Z,100.00
2018-09-05T06:18:26.923Z,100.00
2018-09-05T06:20:56.147Z,100.00
2018-09-05T06:23:25.360Z,100.00
2018-09-05T06:25:54.553Z,100.00
2018-09-05T06:28:23.711Z,100.00
2018-09-05T06:30:55.647Z,100.00
2018-09-05T06:33:24.767Z,100.00
2018-09-05T06:35:53.993Z,100.00
2018-09-05T06:38:23.227Z,100.00
2018-09-05T06:40:54.415Z,100.00
2018-09-05T06:43:23.991Z,100.00
2018-09-05T06:45:53.213Z,100.00
2018-09-05T06:48:22.377Z,100.00
2018-09-05T06:50:55.777Z,100.00
2018-09-05T06:53:25.276Z,100.00
2018-09-05T06:55:54.518Z,100.00
2018-09-05T06:58:24.991Z,100.00
2018-09-05T07:00:54.293Z,100.00
2018-09-05T07:03:23.938Z,100.00
2018-09-05T07:05:53.233Z,100.00
2018-09-05T07:08:22.841Z,100.00
2018-09-05T07:10:52.130Z,100.00
2018-09-05T07:13:21.653Z,100.00
2018-09-05T07:15:51.012Z,100.00
2018-09-05T07:18:21.437Z,100.00
2018-09-05T07:21:06.359Z,100.00
2018-09-05T07:23:34.497Z,100.00
2018-09-05T07:26:03.747Z,100.00
2018-09-05T07:28:33.467Z,100.00
2018-09-05T07:31:05.469Z,99.71
2018-09-05T07:33:34.753Z,99.41
2018-09-05T07:36:04.205Z,99.23
2018-09-05T07:38:33.568Z,99.55
2018-09-05T07:41:03.525Z,99.26
2018-09-05T07:48:38.677Z,98.66
2018-09-05T07:51:08.110Z,98.39
2018-09-05T07:53:37.217Z,98.42
2018-09-05T07:56:06.564Z,97.68
2018-09-05T07:58:37.582Z,97.11
2018-09-05T08:01:08.460Z,97.99
2018-09-05T08:03:37.696Z,97.48
2018-09-05T08:06:06.905Z,96.78
2018-09-05T08:08:36.128Z,95.37
2018-09-05T08:11:05.678Z,95.29
2018-09-05T08:13:34.952Z,93.56
2018-09-05T08:16:04.132Z,92.64
2018-09-05T08:18:34.249Z,92.23
2018-09-05T08:21:03.990Z,91.19
2018-09-05T08:28:33.424Z,89.92
2018-09-05T08:31:02.733Z,90.54
2018-09-05T08:33:32.414Z,89.83
2018-09-05T08:36:02.034Z,89.84
2018-09-05T08:38:31.585Z,90.38
2018-09-05T08:41:04.827Z,88.45
2018-09-05T08:43:35.553Z,85.61
2018-09-05T08:46:05.163Z,85.70
2018-09-05T08:48:34.549Z,85.67
2018-09-05T08:51:04.499Z,86.92
2018-09-05T08:53:34.203Z,85.94
2018-09-05T08:56:04.315Z,86.54
2018-09-05T09:03:30.646Z,87.06
2018-09-05T09:05:59.831Z,86.47
2018-09-05T09:08:29.540Z,86.00
2018-09-05T09:10:58.750Z,86.02
2018-09-05T09:13:30.125Z,87.03
2018-09-05T09:15:59.299Z,87.27
2018-09-05T09:18:31.397Z,86.90
2018-09-05T09:21:00.826Z,87.20
2018-09-05T09:23:30.368Z,86.57
2018-09-05T09:25:59.553Z,85.67
2018-09-05T09:28:29.102Z,84.94
2018-09-05T09:30:58.293Z,85.73
2018-09-05T09:33:27.822Z,84.67
2018-09-05T09:35:57.113Z,84.61
2018-09-05T09:38:26.688Z,85.17
2018-09-05T09:40:55.891Z,85.12
2018-09-05T09:43:25.499Z,84.09
2018-09-05T09:45:54.965Z,83.36
2018-09-05T09:48:24.609Z,83.51
2018-09-05T09:50:55.054Z,82.69
2018-09-05T09:53:24.622Z,82.61
2018-09-05T09:55:53.905Z,81.09
2018-09-05T09:58:23.444Z,82.12
2018-09-05T10:00:57.983Z,81.71
2018-09-05T10:03:32.936Z,82.46
2018-09-05T10:06:09.906Z,81.94
2018-09-05T10:08:44.426Z,81.12
2018-09-05T10:11:17.592Z,81.95
2018-09-05T10:13:51.930Z,81.69
2018-09-05T10:16:26.776Z,80.91
2018-09-05T10:18:55.998Z,79.53
2018-09-05T10:21:25.520Z,78.75
2018-09-05T10:23:54.707Z,81.50
2018-09-05T10:26:25.880Z,80.82
2018-09-05T10:28:55.898Z,81.35
2018-09-05T10:31:27.233Z,79.61
2018-09-05T10:33:57.194Z,78.84
2018-09-05T10:36:26.770Z,79.42
2018-09-05T10:38:55.932Z,78.84
2018-09-05T10:41:25.524Z,79.26
2018-09-05T10:43:54.698Z,79.54
2018-09-05T10:46:24.303Z,77.69
2018-09-05T10:48:54.360Z,75.11
2018-09-05T10:51:28.948Z,76.88
2018-09-05T10:53:58.265Z,77.92
2018-09-05T10:56:27.956Z,77.06
2018-09-05T10:58:57.258Z,76.60
2018-09-05T11:01:26.888Z,74.77
2018-09-05T11:03:56.124Z,73.64
2018-09-05T11:06:25.714Z,75.46
2018-09-05T11:08:55.195Z,75.40
2018-09-05T11:11:25.013Z,76.50
2018-09-05T11:13:54.181Z,77.79
2018-09-05T11:16:23.691Z,76.85
2018-09-05T11:19:00.302Z,77.74
2018-09-05T11:21:29.985Z,77.01
2018-09-05T11:23:59.277Z,75.00
2018-09-05T11:26:29.936Z,76.23
2018-09-05T11:28:59.536Z,75.36
2018-09-05T11:31:29.079Z,75.97
2018-09-05T11:34:00.040Z,75.71
2018-09-05T11:36:29.319Z,75.53
2018-09-05T11:38:59.344Z,77.14
2018-09-05T11:41:29.482Z,75.04
2018-09-05T11:43:58.789Z,76.23
2018-09-05T11:46:28.122Z,75.30
2018-09-05T11:48:57.300Z,75.50
2018-09-05T11:51:26.827Z,73.96
2018-09-05T11:53:56.030Z,73.94
2018-09-05T11:56:25.630Z,73.47
2018-09-05T11:58:54.877Z,71.42
2018-09-05T12:01:25.914Z,72.84
2018-09-05T12:03:55.193Z,72.27
2018-09-05T12:06:26.888Z,72.61
2018-09-05T12:08:57.793Z,73.19
2018-09-05T12:11:27.357Z,73.87
2018-09-05T12:13:56.512Z,72.96
2018-09-05T12:16:28.114Z,72.20
2018-09-05T12:18:58.115Z,72.24
2018-09-05T12:21:27.622Z,71.66
2018-09-05T12:23:59.456Z,72.34
2018-09-05T12:26:28.666Z,71.84
2018-09-05T12:28:57.912Z,71.51
2018-09-05T12:31:27.700Z,73.14
2018-09-05T12:33:56.916Z,71.92
2018-09-05T12:36:26.477Z,72.77
2018-09-05T12:38:55.668Z,71.81
2018-09-05T12:41:26.966Z,70.11
2018-09-05T12:43:56.132Z,72.41
2018-09-05T12:46:25.755Z,70.35
2018-09-05T12:48:54.977Z,69.89
2018-09-05T12:51:24.654Z,72.61
2018-09-05T12:53:56.409Z,72.76
2018-09-05T12:56:26.277Z,73.12
2018-09-05T12:58:55.452Z,69.81
2018-09-05T13:01:25.047Z,69.77
2018-09-05T13:03:54.420Z,68.92
2018-09-05T13:06:24.082Z,69.13
2018-09-05T13:08:56.513Z,69.23
2018-09-05T13:11:27.687Z,71.02
2018-09-05T13:13:56.817Z,71.49
2018-09-05T13:16:27.761Z,71.75
2018-09-05T13:18:58.674Z,70.45
2018-09-05T13:21:27.962Z,69.07
2018-09-05T13:23:57.176Z,71.17
2018-09-05T13:26:26.754Z,72.63
2018-09-05T13:28:55.952Z,71.27
2018-09-05T13:31:25.559Z,70.60
2018-09-05T13:33:54.725Z,70.36
2018-09-05T13:36:26.687Z,70.42
2018-09-05T13:38:55.939Z,70.46
2018-09-05T13:41:27.294Z,70.57
2018-09-05T13:43:56.519Z,70.64
2018-09-05T13:46:28.020Z,70.35
2018-09-05T13:48:57.251Z,70.78
2018-09-05T13:51:26.795Z,69.26
2018-09-05T13:53:56.000Z,69.75
2018-09-05T13:56:25.829Z,70.58
2018-09-05T13:58:55.095Z,70.23
2018-09-05T14:01:24.414Z,69.85
2018-09-05T14:03:53.667Z,68.18
2018-09-05T14:06:23.309Z,66.75
2018-09-05T14:08:54.761Z,67.63
2018-09-05T14:11:26.106Z,66.88
2018-09-05T14:13:55.350Z,66.03
2018-09-05T14:16:24.941Z,68.65
2018-09-05T14:18:54.135Z,69.33
2018-09-05T14:21:23.750Z,68.03
2018-09-05T14:23:52.979Z,67.64
2018-09-05T14:26:22.639Z,65.99
2018-09-05T14:28:51.953Z,66.32
2018-09-05T14:31:21.787Z,67.17
2018-09-05T14:33:51.034Z,67.59
2018-09-05T14:36:22.889Z,65.97
2018-09-05T14:38:52.097Z,63.94
2018-09-05T14:41:24.518Z,63.01
2018-09-05T14:43:53.754Z,63.79
2018-09-05T14:46:25.286Z,64.65
2018-09-05T14:48:55.360Z,62.28
2018-09-05T14:51:24.923Z,63.43
2018-09-05T14:53:54.163Z,62.15
2018-09-05T14:56:26.866Z,62.16
2018-09-05T14:58:57.724Z,61.51
2018-09-05T15:01:26.967Z,59.93
2018-09-05T15:03:56.195Z,60.58
2018-09-05T15:06:28.474Z,60.33
2018-09-05T15:09:00.474Z,59.85
2018-09-05T15:11:30.077Z,60.73
2018-09-05T15:13:59.373Z,60.26
2018-09-05T15:16:29.021Z,60.29
2018-09-05T15:18:58.215Z,59.70
2018-09-05T15:21:27.795Z,59.63
2018-09-05T15:23:57.879Z,58.90
2018-09-05T15:26:27.579Z,59.22
2018-09-05T15:28:56.764Z,60.19
2018-09-05T15:31:26.264Z,59.67
2018-09-05T15:33:57.292Z,60.00
2018-09-05T15:36:26.795Z,60.77
2018-09-05T15:38:55.989Z,61.16
2018-09-05T15:41:25.549Z,60.47
2018-09-05T15:43:54.785Z,61.61
2018-09-05T15:46:25.237Z,60.23
2018-09-05T15:48:54.569Z,62.74
2018-09-05T15:51:24.137Z,62.50
2018-09-05T15:53:54.243Z,63.28
2018-09-05T15:56:23.915Z,64.30
2018-09-05T15:58:53.160Z,63.52
2018-09-05T16:01:24.130Z,63.79
2018-09-05T16:04:00.873Z,64.23
2018-09-05T16:06:31.358Z,63.80
2018-09-05T16:09:03.976Z,64.97
2018-09-05T16:11:37.178Z,65.16
2018-09-05T16:14:10.892Z,65.91
2018-09-05T16:16:40.074Z,66.09
2018-09-05T16:19:13.812Z,66.37
2018-09-05T16:21:43.012Z,66.93
2018-09-05T16:24:12.167Z,66.25
2018-09-05T16:26:45.918Z,67.89
2018-09-05T16:29:17.302Z,68.32
2018-09-05T16:31:46.605Z,67.85
2018-09-05T16:34:19.322Z,68.97
2018-09-05T16:36:51.182Z,69.39
2018-09-05T16:39:20.850Z,69.55
2018-09-05T16:41:50.051Z,69.32
2018-09-05T16:44:19.668Z,69.67
2018-09-05T16:46:48.922Z,70.54
2018-09-05T16:49:18.581Z,70.00
2018-09-05T16:51:49.790Z,70.67
2018-09-05T16:54:22.186Z,70.69
2018-09-05T16:56:51.359Z,71.08
2018-09-05T16:59:21.018Z,71.81
2018-09-05T17:01:50.267Z,71.22
2018-09-05T17:04:21.543Z,72.41
2018-09-05T17:06:50.724Z,72.61
2018-09-05T17:09:21.220Z,72.39
2018-09-05T17:11:50.585Z,72.18
2018-09-05T17:14:21.825Z,72.72
2018-09-05T17:16:53.104Z,73.01
2018-09-05T17:19:22.856Z,73.63
2018-09-05T17:21:54.035Z,73.93
2018-09-05T17:24:23.755Z,74.95
2018-09-05T17:26:55.015Z,75.48
2018-09-05T17:29:24.447Z,76.32
2018-09-05T17:31:53.789Z,76.21
2018-09-05T17:34:23.380Z,77.17
2018-09-05T17:36:52.777Z,77.54
2018-09-05T17:39:26.476Z,78.32
2018-09-05T17:41:55.808Z,78.72
2018-09-05T17:44:27.708Z,79.30
2018-09-05T17:47:04.167Z,79.69
2018-09-05T17:49:35.821Z,81.07
2018-09-05T17:52:05.065Z,81.28
2018-09-05T17:54:37.234Z,81.39
2018-09-05T17:57:07.454Z,82.03
2018-09-05T17:59:36.965Z,81.77
2018-09-05T18:02:06.262Z,82.68
2018-09-05T18:04:35.853Z,82.95
2018-09-05T18:07:05.288Z,83.83
2018-09-05T18:09:36.768Z,84.18
2018-09-05T18:12:06.349Z,84.36
2018-09-05T18:14:36.046Z,84.24
2018-09-05T18:17:06.438Z,84.81
2018-09-05T18:19:35.994Z,85.09
2018-09-05T18:22:05.369Z,86.17
2018-09-05T18:24:35.118Z,86.31
2018-09-05T18:27:04.447Z,86.15
2018-09-05T18:29:36.518Z,86.42
2018-09-05T18:32:07.696Z,87.31
2018-09-05T18:34:37.152Z,86.83
2018-09-05T18:37:06.463Z,87.60
2018-09-05T18:39:35.727Z,87.91
2018-09-05T18:42:05.539Z,88.24
2018-09-05T18:44:35.184Z,87.90
2018-09-05T18:47:04.929Z,89.02
2018-09-05T18:49:35.693Z,89.10
2018-09-05T18:52:05.410Z,88.79
2018-09-05T18:54:35.297Z,89.62
2018-09-05T18:57:04.689Z,89.23
2018-09-05T18:59:34.409Z,89.65
2018-09-05T19:02:03.941Z,89.74
2018-09-05T19:04:35.084Z,89.69
2018-09-05T19:07:04.589Z,90.09
2018-09-05T19:09:33.956Z,90.45
2018-09-05T19:12:03.466Z,90.57
2018-09-05T19:14:36.506Z,90.99
2018-09-05T19:17:06.158Z,91.89
2018-09-05T19:19:36.847Z,91.93
2018-09-05T19:22:06.497Z,92.35
2018-09-05T19:24:36.306Z,92.57
2018-09-05T19:27:06.639Z,92.03
2018-09-05T19:29:36.045Z,92.79
2018-09-05T19:32:05.439Z,93.09
2018-09-05T19:34:35.547Z,92.69
2018-09-05T19:37:08.243Z,93.16
2018-09-05T19:39:38.258Z,93.28
2018-09-05T19:42:10.225Z,93.03
2018-09-05T19:44:42.334Z,93.83
2018-09-05T19:47:14.062Z,93.88
2018-09-05T19:49:44.125Z,93.97
2018-09-05T19:52:13.798Z,93.59
2018-09-05T19:54:44.325Z,94.17
2018-09-05T19:57:14.456Z,93.74
2018-09-05T19:59:43.927Z,93.91
2018-09-05T20:02:14.359Z,94.65
2018-09-05T20:04:43.860Z,94.13
2018-09-05T20:07:13.469Z,94.20
2018-09-05T20:09:42.915Z,94.88
2018-09-05T20:12:12.469Z,95.18
2018-09-05T20:14:41.942Z,94.77
2018-09-05T20:17:15.364Z,95.37
2018-09-05T20:19:44.848Z,95.57
2018-09-05T20:22:14.272Z,95.61
2018-09-05T20:24:44.902Z,95.69
2018-09-05T20:27:14.178Z,95.13
2018-09-05T20:29:43.544Z,95.23
2018-09-05T20:32:13.042Z,95.87
2018-09-05T20:34:42.389Z,95.45
2018-09-05T20:37:11.687Z,95.93
2018-09-05T20:39:45.829Z,95.66
2018-09-05T20:42:15.136Z,95.47
2018-09-05T20:44:44.444Z,95.84
2018-09-05T20:47:13.706Z,95.51
2018-09-05T20:49:43.010Z,96.00
2018-09-05T20:52:14.709Z,96.04
2018-09-05T20:54:43.937Z,95.75
2018-09-05T20:57:13.187Z,95.78
2018-09-05T20:59:44.963Z,95.98
2018-09-05T21:02:14.263Z,96.24
2018-09-05T21:04:43.550Z,96.58
2018-09-05T21:07:17.212Z,95.99
2018-09-05T21:09:52.617Z,96.40
2018-09-05T21:12:22.339Z,96.64
2018-09-05T21:14:51.695Z,96.02
2018-09-05T21:17:21.241Z,96.02
2018-09-05T21:19:53.931Z,96.26
2018-09-05T21:22:23.598Z,96.15
2018-09-05T21:24:52.829Z,96.06
2018-09-05T21:27:24.242Z,96.25
2018-09-05T21:29:55.103Z,96.19
2018-09-05T21:32:24.705Z,96.12
2018-09-05T21:34:53.913Z,96.58
2018-09-05T21:37:25.236Z,96.67
2018-09-05T21:39:54.470Z,96.69
2018-09-05T21:42:24.064Z,96.12
2018-09-05T21:44:53.306Z,95.97
2018-09-05T21:47:28.020Z,96.24
2018-09-05T21:49:57.224Z,95.94
2018-09-05T21:52:26.852Z,96.01
2018-09-05T21:54:56.798Z,96.54
2018-09-05T21:57:26.058Z,95.95
2018-09-05T21:59:57.138Z,95.88
2018-09-05T22:02:31.198Z,96.12
2018-09-05T22:05:00.464Z,96.31
2018-09-05T22:07:30.762Z,96.27
2018-09-05T22:09:59.965Z,96.17
2018-09-05T22:12:29.454Z,96.38
2018-09-05T22:15:00.820Z,96.19
2018-09-05T22:17:30.078Z,96.99
2018-09-05T22:19:59.280Z,96.44
2018-09-05T22:22:29.253Z,96.49
2018-09-05T22:25:00.794Z,96.48
2018-09-05T22:27:30.551Z,96.74
2018-09-05T22:29:59.758Z,96.58
2018-09-05T22:32:33.204Z,96.81
2018-09-05T22:35:02.480Z,96.63
2018-09-05T22:37:33.777Z,96.84
2018-09-05T22:40:02.976Z,96.57
2018-09-05T22:42:34.057Z,96.44
2018-09-05T22:45:14.372Z,96.95
2018-09-05T22:48:03.758Z,96.53
2018-09-05T22:52:14.596Z,96.46
2018-09-05T22:55:31.214Z,96.76
2018-09-05T22:59:15.648Z,96.99
2018-09-05T23:03:01.066Z,96.31
2018-09-05T23:06:39.373Z,96.65
2018-09-05T23:09:11.148Z,96.30
2018-09-05T23:12:01.063Z,96.72
2018-09-05T23:14:42.277Z,96.60
2018-09-05T23:17:25.773Z,96.24
2018-09-05T23:20:07.057Z,96.59
2018-09-05T23:22:47.292Z,96.81
2018-09-05T23:25:21.785Z,96.58
2018-09-05T23:27:53.571Z,96.98
2018-09-05T23:30:23.653Z,96.60
2018-09-05T23:32:52.877Z,96.71
2018-09-05T23:35:25.403Z,96.46
2018-09-05T23:37:54.570Z,96.67
2018-09-05T23:40:24.105Z,96.37
2018-09-05T23:42:54.954Z,96.35
2018-09-05T23:45:24.640Z,96.80
2018-09-05T23:47:53.863Z,96.20
2018-09-05T23:50:23.681Z,97.07
2018-09-05T23:52:58.338Z,96.47
2018-09-05T23:55:30.765Z,96.55
2018-09-05T23:58:02.635Z,96.87
